Time;durP1;ratioP1;P1;durP2;ratioP2;P2;SDS_P1;SDS_P2;PMS_P1;PMS_P2;Temp;Humidity;BMP_temperature;BMP_pressure;BME280_temperature;BME280_humidity;BME280_pressure;Samples;Min_cycle;Max_cycle;Signal;HPM_P1;HPM_P2
2022/10/21 00:00:02;;;;;;;17.80;12.70;;;;;;;0.73;79.13;100136.98;435687;1284;142805;-68
2022/10/21 00:10:09;;;;;;;17.40;12.80;;;;;;;0.68;79.30;100126.70;436548;1282;144171;-67
2022/10/21 00:20:15;;;;;;;18.60;12.30;;;;;;;0.64;79.60;100116.77;436499;1282;142258;-68
2022/10/21 00:30:21;;;;;;;16.20;11.80;;;;;;;0.60;79.54;100109.24;433642;1282;214279;-68
2022/10/21 00:40:27;;;;;;;15.60;11.10;;;;;;;0.58;79.83;100082.23;436471;1278;142285;-67
2022/10/21 00:50:37;;;;;;;17.40;11.40;;;;;;;0.55;80.17;100057.27;420907;1275;142920;-67
2022/10/21 01:00:47;;;;;;;17.90;12.50;;;;;;;0.53;80.37;100046.63;436323;1282;196564;-67
2022/10/21 01:10:53;;;;;;;17.80;13.00;;;;;;;0.52;80.46;100035.62;436363;1282;141989;-68
2022/10/21 01:21:10;;;;;;;17.80;11.70;;;;;;;0.52;80.49;100034.60;435735;1283;142992;-68
2022/10/21 01:31:21;;;;;;;18.80;11.10;;;;;;;0.48;80.34;100029.48;433260;1278;142125;-68
2022/10/21 01:41:31;;;;;;;16.90;12.50;;;;;;;0.47;80.69;100023.98;435682;1284;202342;-69
2022/10/21 01:51:38;;;;;;;18.80;14.20;;;;;;;0.42;80.75;100025.09;436463;1280;143113;-67
2022/10/21 02:01:46;;;;;;;16.30;11.60;;;;;;;0.37;80.67;100002.27;436538;1283;141803;-67
2022/10/21 02:11:55;;;;;;;14.60;10.90;;;;;;;0.39;81.18;99988.62;435724;1281;143153;-67
2022/10/21 02:22:04;;;;;;;16.10;11.00;;;;;;;0.38;81.22;99976.41;436553;1281;142804;-67
2022/10/21 02:32:23;;;;;;;16.40;11.60;;;;;;;0.33;81.47;99967.02;431570;1275;141441;-67
2022/10/21 02:42:33;;;;;;;15.90;11.20;;;;;;;0.25;81.50;99964.72;436074;1282;196442;-67
2022/10/21 02:52:39;;;;;;;16.30;11.20;;;;;;;0.16;81.60;99961.92;436501;1284;142945;-68
2022/10/21 03:02:45;;;;;;;16.20;12.40;;;;;;;0.09;82.02;99946.55;435776;1278;142691;-68
2022/10/21 03:12:51;;;;;;;15.80;11.00;;;;;;;0.04;81.98;99935.42;433369;1288;141845;-67
2022/10/21 03:22:57;;;;;;;18.50;11.60;;;;;;;-0.03;82.41;99928.82;436539;1282;143290;-67
2022/10/21 03:33:03;;;;;;;15.40;12.50;;;;;;;-0.07;82.62;99910.98;423808;1275;143259;-66
2022/10/21 03:43:09;;;;;;;16.00;11.50;;;;;;;-0.16;82.70;99896.83;432810;1282;146233;-68
2022/10/21 03:53:15;;;;;;;15.00;10.30;;;;;;;-0.19;83.03;99884.30;436517;1282;142783;-67
2022/10/21 04:03:41;;;;;;;15.60;11.20;;;;;;;-0.20;82.97;99878.13;436140;1281;143053;-67
2022/10/21 04:13:47;;;;;;;16.20;13.70;;;;;;;-0.22;82.83;99885.21;427635;1274;142523;-66
2022/10/21 04:23:52;;;;;;;18.50;11.40;;;;;;;-0.24;83.04;99880.60;435721;1282;143863;-68
2022/10/21 04:33:58;;;;;;;14.10;10.90;;;;;;;-0.21;83.20;99864.38;434123;1282;143495;-68
2022/10/21 04:44:05;;;;;;;14.50;11.40;;;;;;;-0.19;83.19;99853.84;431837;1275;143705;-68
2022/10/21 04:54:09;;;;;;;;;;;;;;;-0.16;83.44;99835.23;423185;1275;142563;-68
2022/10/21 05:04:15;;;;;;;16.90;13.40;;;;;;;-0.17;83.45;99834.04;422693;1275;129244;-68
2022/10/21 05:14:20;;;;;;;14.40;10.70;;;;;;;-0.19;83.42;99835.78;433982;1282;141883;-68
2022/10/21 05:24:27;;;;;;;15.60;10.90;;;;;;;-0.13;83.21;99821.94;436344;1285;143578;-67
2022/10/21 05:34:33;;;;;;;16.80;12.70;;;;;;;-0.03;83.59;99808.67;436280;1282;183699;-68
2022/10/21 05:44:39;;;;;;;18.10;11.00;;;;;;;0.15;83.49;99812.50;434396;1282;142988;-68
2022/10/21 05:54:45;;;;;;;18.50;12.00;;;;;;;0.50;83.27;99812.74;426712;1275;142173;-67
2022/10/21 06:04:50;;;;;;;18.10;12.30;;;;;;;0.86;83.09;99805.14;424773;1274;143256;-67
2022/10/21 06:14:56;;;;;;;16.30;11.60;;;;;;;1.26;82.59;99804.81;420134;1275;142714;-69
2022/10/21 06:25:02;;;;;;;17.60;12.70;;;;;;;1.39;82.12;99802.11;430238;1275;142263;-68
2022/10/21 06:35:08;;;;;;;16.80;12.10;;;;;;;1.49;81.95;99803.77;428233;1282;142012;-68
2022/10/21 06:45:14;;;;;;;14.70;11.70;;;;;;;1.76;81.90;99782.26;422175;1274;144893;-68
2022/10/21 06:55:20;;;;;;;16.40;11.90;;;;;;;2.14;81.69;99771.46;423666;1275;143715;-68
2022/10/21 07:05:26;;;;;;;15.10;11.40;;;;;;;2.63;81.06;99758.58;420658;1282;142447;-69
2022/10/21 07:15:31;;;;;;;19.00;11.90;;;;;;;3.24;80.26;99742.05;426850;1282;200119;-68
2022/10/21 07:25:37;;;;;;;12.70;10.10;;;;;;;3.96;79.10;99740.09;436538;1282;142241;-68
2022/10/21 07:35:43;;;;;;;14.10;11.10;;;;;;;4.64;78.60;99734.00;422970;1275;142719;-67
2022/10/21 07:45:49;;;;;;;15.90;11.40;;;;;;;6.17;76.03;99723.30;419250;1274;141780;-68
2022/10/21 07:56:04;;;;;;;15.00;11.30;;;;;;;6.13;74.70;99710.77;432054;1284;143032;-67
2022/10/21 08:06:12;;;;;;;16.50;12.90;;;;;;;5.76;74.89;99692.33;430280;1284;142749;-69
2022/10/21 08:16:18;;;;;;;18.60;12.90;;;;;;;5.59;74.97;99678.29;436458;1283;142727;-69
2022/10/21 08:26:24;;;;;;;18.40;14.20;;;;;;;5.61;75.16;99659.61;435764;1284;145277;-73
2022/10/21 08:36:30;;;;;;;17.70;13.30;;;;;;;5.93;75.22;99651.45;427813;1275;142553;-69
2022/10/21 08:46:41;;;;;;;15.90;12.20;;;;;;;6.69;74.44;99640.42;423359;1274;143221;-69
2022/10/21 08:56:49;;;;;;;15.40;12.10;;;;;;;8.02;73.33;99631.55;435002;1274;143024;-69
2022/10/21 09:07:02;;;;;;;15.70;11.00;;;;;;;10.21;70.71;99611.85;436448;1284;143226;-69
2022/10/21 09:17:17;;;;;;;15.90;11.20;;;;;;;10.27;68.11;99597.21;436309;1285;142765;-68
2022/10/21 09:27:24;;;;;;;13.60;11.70;;;;;;;9.61;68.07;99598.57;435800;1288;143112;-69
2022/10/21 09:37:47;;;;;;;13.10;11.10;;;;;;;9.36;68.88;99589.01;425382;1284;143971;-68
2022/10/21 09:47:57;;;;;;;16.90;10.50;;;;;;;9.66;69.02;99575.72;435491;1277;142283;-67
2022/10/21 09:58:04;;;;;;;14.50;10.30;;;;;;;9.81;68.74;99556.78;436264;1290;142792;-68
2022/10/21 10:08:27;;;;;;;14.30;12.80;;;;;;;9.94;68.27;99543.80;435565;1283;142159;-68
2022/10/21 10:18:34;;;;;;;16.30;11.80;;;;;;;9.96;67.85;99536.15;435833;1288;196741;-68
2022/10/21 10:28:39;;;;;;;15.90;11.70;;;;;;;10.32;67.67;99521.48;436090;1274;142286;-69
2022/10/21 10:38:57;;;;;;;17.50;14.20;;;;;;;10.54;67.41;99517.30;427167;1282;142784;-68
2022/10/21 10:49:21;;;;;;;10.90;9.70;;;;;;;10.72;67.33;99504.77;436383;1289;143582;-69
2022/10/21 10:59:36;;;;;;;12.40;8.80;;;;;;;11.17;67.01;99499.27;430928;1282;142828;-67
2022/10/21 11:09:42;;;;;;;10.00;8.20;;;;;;;11.57;65.70;99491.67;436443;1282;141713;-67
2022/10/21 11:19:56;;;;;;;13.30;8.30;;;;;;;11.91;64.51;99478.41;436538;1281;143233;-69
2022/10/21 11:30:10;;;;;;;10.90;8.60;;;;;;;12.16;63.92;99457.95;435752;1280;143888;-67
2022/10/21 11:40:27;;;;;;;9.90;7.50;;;;;;;12.06;63.12;99438.85;429782;1281;142079;-68
2022/10/21 11:50:39;;;;;;;9.00;7.70;;;;;;;11.95;62.90;99415.69;435810;1288;144193;-68
2022/10/21 12:00:53;;;;;;;12.10;7.70;;;;;;;12.14;62.02;99427.73;436540;1280;141386;-68
2022/10/21 12:11:03;;;;;;;9.10;7.60;;;;;;;11.87;60.99;99432.92;431683;1282;141977;-68
2022/10/21 12:21:15;;;;;;;9.90;7.90;;;;;;;11.58;61.03;99430.45;435753;1280;142423;-68
2022/10/21 12:31:35;;;;;;;10.00;6.70;;;;;;;11.41;61.23;99410.80;436543;1282;141968;-68
2022/10/21 12:41:43;;;;;;;10.90;8.00;;;;;;;11.32;61.48;99400.34;425886;1281;141147;-68
2022/10/21 12:51:53;;;;;;;10.80;8.90;;;;;;;11.28;61.64;99388.73;436489;1289;142714;-68
2022/10/21 13:02:22;;;;;;;14.20;9.60;;;;;;;11.53;61.62;99377.13;436398;1286;166339;-68
2022/10/21 13:12:32;;;;;;;12.60;8.90;;;;;;;11.66;61.50;99362.89;436093;1280;210506;-67
2022/10/21 13:22:40;;;;;;;11.60;9.10;;;;;;;11.52;61.62;99363.58;436558;1286;142842;-68
2022/10/21 13:32:45;;;;;;;;;;;;;;;11.44;61.83;99361.45;435023;1288;142288;-68
2022/10/21 13:42:58;;;;;;;12.10;9.60;;;;;;;11.12;62.21;99355.47;436726;1285;127897;-68
2022/10/21 13:53:14;;;;;;;15.20;10.20;;;;;;;10.92;62.61;99361.42;436549;1282;141988;-68
2022/10/21 14:03:24;;;;;;;13.00;9.20;;;;;;;10.71;63.06;99374.53;436017;1282;212554;-69
2022/10/21 14:13:35;;;;;;;12.10;9.40;;;;;;;10.53;63.28;99364.41;436547;1282;141260;-68
2022/10/21 14:23:41;;;;;;;18.00;10.50;;;;;;;10.28;63.90;99376.11;435595;1284;142457;-69
2022/10/21 14:33:48;;;;;;;14.40;11.30;;;;;;;10.18;64.23;99369.81;433889;1283;146359;-69
2022/10/21 14:43:57;;;;;;;13.60;9.70;;;;;;;10.05;64.43;99354.02;423388;1281;141758;-69
2022/10/21 14:54:06;;;;;;;14.60;10.60;;;;;;;9.91;64.83;99344.96;435742;1287;144088;-69
2022/10/21 15:04:42;;;;;;;11.50;10.10;;;;;;;9.75;65.10;99348.42;435010;1280;143981;-71
2022/10/21 15:14:48;;;;;;;15.10;11.00;;;;;;;9.57;65.22;99344.55;435763;1281;142951;-68
2022/10/21 15:24:59;;;;;;;16.10;10.90;;;;;;;9.40;65.80;99349.07;427808;1274;143936;-68
2022/10/21 15:35:12;;;;;;;17.30;12.60;;;;;;;9.25;66.62;99355.07;433165;1282;142358;-68
2022/10/21 15:45:21;;;;;;;17.10;12.60;;;;;;;9.06;67.12;99346.11;433252;1281;142811;-68
2022/10/21 15:55:27;;;;;;;18.30;13.10;;;;;;;8.84;67.81;99342.89;420443;1275;143876;-71
2022/10/21 16:05:33;;;;;;;16.80;12.00;;;;;;;8.56;68.18;99347.21;422433;1282;141016;-68
2022/10/21 16:15:39;;;;;;;20.30;15.20;;;;;;;8.22;68.82;99338.98;427823;1281;142084;-68
2022/10/21 16:25:45;;;;;;;22.20;15.00;;;;;;;8.01;69.44;99336.41;434635;1281;143335;-69
2022/10/21 16:35:52;;;;;;;17.70;14.40;;;;;;;7.90;70.08;99328.46;435737;1282;144686;-68
2022/10/21 16:45:58;;;;;;;23.20;17.50;;;;;;;7.82;70.36;99331.87;436512;1277;142138;-69
2022/10/21 16:56:04;;;;;;;26.70;18.20;;;;;;;7.69;70.99;99323.51;432899;1284;143996;-69
2022/10/21 17:06:13;;;;;;;22.10;16.20;;;;;;;7.57;71.57;99320.71;433095;1281;142936;-68
2022/10/21 17:16:20;;;;;;;22.50;17.90;;;;;;;7.48;72.19;99314.56;433744;1275;142868;-69
2022/10/21 17:26:25;;;;;;;26.00;18.80;;;;;;;7.55;72.48;99307.27;427412;1275;145673;-70
2022/10/21 17:36:31;;;;;;;25.80;18.10;;;;;;;7.64;72.75;99301.31;423038;1281;143008;-68
2022/10/21 17:46:37;;;;;;;25.30;17.80;;;;;;;7.73;72.83;99295.77;429934;1282;142854;-67
2022/10/21 17:56:43;;;;;;;23.10;17.40;;;;;;;7.86;72.93;99280.09;432033;1281;145442;-68
2022/10/21 18:06:49;;;;;;;24.60;18.40;;;;;;;8.02;72.90;99270.27;436499;1278;143019;-67
2022/10/21 18:16:55;;;;;;;27.60;21.00;;;;;;;8.18;73.16;99258.16;425287;1282;145382;-68
2022/10/21 18:27:00;;;;;;;26.20;19.00;;;;;;;8.32;73.20;99241.10;419721;1282;141058;-68
2022/10/21 18:37:06;;;;;;;23.90;17.10;;;;;;;8.39;73.32;99225.19;421207;1274;144155;-67
2022/10/21 18:47:16;;;;;;;20.20;15.60;;;;;;;8.41;73.56;99212.66;420621;1281;143698;-68
2022/10/21 18:57:22;;;;;;;22.50;16.50;;;;;;;8.44;73.85;99205.52;420522;1275;198369;-69
2022/10/21 19:07:28;;;;;;;19.40;16.70;;;;;;;8.44;74.06;99199.61;422711;1275;142991;-73
2022/10/21 19:17:33;;;;;;;22.90;16.40;;;;;;;8.45;74.17;99204.60;420172;1274;143816;-67
2022/10/21 19:27:39;;;;;;;24.00;16.70;;;;;;;8.48;74.35;99209.10;421187;1275;143519;-68
2022/10/21 19:37:45;;;;;;;21.30;16.90;;;;;;;8.53;74.47;99216.87;422174;1274;142443;-69
2022/10/21 19:47:52;;;;;;;28.40;20.40;;;;;;;8.55;74.65;99223.72;421037;1272;145216;-69
2022/10/21 19:57:57;;;;;;;25.40;18.60;;;;;;;8.59;74.90;99236.23;422669;1281;143346;-69
2022/10/21 20:08:03;;;;;;;26.20;19.50;;;;;;;8.64;75.33;99253.54;423000;1274;142369;-69
2022/10/21 20:18:09;;;;;;;32.20;22.50;;;;;;;8.70;75.81;99259.09;423589;1278;143659;-67
2022/10/21 20:28:15;;;;;;;28.10;21.30;;;;;;;8.70;76.63;99269.03;421600;1274;142525;-68
2022/10/21 20:38:20;;;;;;;27.20;19.60;;;;;;;8.70;77.16;99272.38;420611;1274;148036;-68
2022/10/21 20:48:26;;;;;;;39.10;26.20;;;;;;;8.66;77.63;99268.39;421192;1275;142489;-67
2022/10/21 20:58:36;;;;;;;33.40;21.80;;;;;;;8.59;78.02;99260.45;420569;1274;147659;-67
2022/10/21 21:08:42;;;;;;;30.70;23.30;;;;;;;8.54;78.60;99243.33;419722;1281;148765;-68
2022/10/21 21:18:55;;;;;;;28.80;20.50;;;;;;;8.52;78.97;99240.27;422982;1278;144930;-69
2022/10/21 21:29:01;;;;;;;29.50;21.30;;;;;;;8.53;79.50;99246.70;422428;1275;143140;-71
2022/10/21 21:39:09;;;;;;;30.70;23.30;;;;;;;8.52;80.02;99262.80;419868;1274;141460;-70
2022/10/21 21:49:15;;;;;;;32.60;24.30;;;;;;;8.53;80.64;99269.40;423260;1275;142433;-67
2022/10/21 21:59:22;;;;;;;34.80;24.30;;;;;;;8.58;81.23;99259.32;419798;1274;142289;-68
2022/10/21 22:09:28;;;;;;;39.30;26.40;;;;;;;8.61;81.36;99253.36;421137;1275;141690;-67
2022/10/21 22:19:34;;;;;;;36.80;25.60;;;;;;;8.64;81.79;99247.63;422464;1279;143382;-68
2022/10/21 22:29:39;;;;;;;32.20;23.20;;;;;;;8.67;81.82;99233.61;420605;1275;196339;-67
2022/10/21 22:39:45;;;;;;;23.20;15.70;;;;;;;8.70;82.38;99221.92;422011;1272;142813;-68
2022/10/21 22:49:52;;;;;;;16.00;14.40;;;;;;;8.71;82.34;99212.47;420338;1274;145707;-68
2022/10/21 22:59:57;;;;;;;19.00;13.40;;;;;;;8.71;82.78;99202.68;420150;1272;141855;-67
2022/10/21 23:10:04;;;;;;;24.00;19.60;;;;;;;8.71;82.82;99203.20;421272;1282;142398;-67
2022/10/21 23:20:15;;;;;;;15.30;12.10;;;;;;;8.72;82.91;99204.23;421147;1274;144701;-68
2022/10/21 23:30:21;;;;;;;23.60;18.10;;;;;;;8.70;83.00;99203.60;421406;1272;208342;-68
2022/10/21 23:40:27;;;;;;;18.30;14.90;;;;;;;8.67;83.37;99192.30;420760;1281;142155;-67
2022/10/21 23:50:33;;;;;;;16.10;14.00;;;;;;;8.64;83.77;99183.56;420396;1281;145027;-68
